Search for airport 
image banner adimage banner adimage banner ad
image banner ad

KAWG - Washington Muni

Located in Washington, United States

ICAO - AWG, IATA -

Data provided by Airmate  

General information

Coordinates: N41°16'32" W91°40'34"
Elevation is 754 feet MSL.
Magnetic variation is -01° East
View others Airports in Iowa

Operational data

Special qualification required
Current time UTC:
Current local time:
Weather
METAR: KAWG 181755Z AUTO 04008KT 10SM CLR 29/25 A2980 RMK AO2
View NOTAMs / SUP AIP / TFR affecting this airport [VIEW]
Communications frequencies: [VIEW]

Runways:

RWY identifierQFULength (ft)Width (ft)SurfaceLDA (ft)
13135°340160CONC
31315°340160CONC
18183°400075CONC
36400075CONC

Airport contact information

Address: Washington United States

Satellite view of KAWG